Time,TemperatureF,DewpointF,PressureIn,WindDirection,WindDirectionDegrees,WindSpeedMPH,WindSpeedGustMPH,Humidity,HourlyPrecipIn,Conditions,Clouds,dailyrainin,SoftwareType,DateUTC
2013-02-18 00:09:00,18.9,-2.0,30.21,North,-999,0.0,0.0,39,0.00,,,-99.99,FreeWX 2.04,2013-02-18 05:09:00,
2013-02-18 00:19:00,18.9,-2.0,30.21,North,-999,0.0,0.0,39,0.00,,,-99.99,FreeWX 2.04,2013-02-18 05:19:00,
2013-02-18 00:29:00,18.7,-1.7,30.21,North,-999,0.0,0.0,40,0.00,,,-99.99,FreeWX 2.04,2013-02-18 05:29:00,
2013-02-18 00:39:00,18.5,-1.3,30.21,North,-999,0.0,0.0,41,0.00,,,-99.99,FreeWX 2.04,2013-02-18 05:39:00,
2013-02-18 00:49:00,18.3,-0.9,30.21,North,-999,0.0,0.0,42,0.00,,,-99.99,FreeWX 2.04,2013-02-18 05:49:00,
2013-02-18 00:59:00,18.1,-0.6,30.21,North,-999,0.0,0.0,43,0.00,,,-99.99,FreeWX 2.04,2013-02-18 05:59:00,
2013-02-18 01:09:00,18.1,-0.6,30.21,North,-999,0.0,0.0,43,0.00,,,-99.99,FreeWX 2.04,2013-02-18 06:09:00,
2013-02-18 01:19:00,18.1,0.0,30.21,North,-999,0.0,0.0,44,0.00,,,-99.99,FreeWX 2.04,2013-02-18 06:19:00,
2013-02-18 01:29:00,18.0,-0.8,30.21,North,-999,0.0,0.0,43,0.00,,,-99.99,FreeWX 2.04,2013-02-18 06:29:00,
2013-02-18 01:39:00,17.6,-1.1,30.21,North,-999,0.0,0.0,43,0.00,,,-99.99,FreeWX 2.04,2013-02-18 06:39:00,
2013-02-18 01:49:00,17.4,-1.1,30.21,North,-999,0.0,0.0,43,0.00,,,-99.99,FreeWX 2.04,2013-02-18 06:49:00,
2013-02-18 01:59:00,17.4,-1.1,30.21,North,-999,0.0,0.0,43,0.00,,,-99.99,FreeWX 2.04,2013-02-18 06:59:00,
2013-02-18 02:09:00,17.2,-0.9,30.21,North,-999,0.0,0.0,44,0.00,,,-99.99,FreeWX 2.04,2013-02-18 07:09:00,
2013-02-18 02:19:00,17.2,-0.9,30.21,North,-999,0.0,0.0,44,0.00,,,-99.99,FreeWX 2.04,2013-02-18 07:19:00,
2013-02-18 02:29:00,17.2,-0.9,30.21,North,-999,0.0,0.0,44,0.00,,,-99.99,FreeWX 2.04,2013-02-18 07:29:00,
2013-02-18 02:39:00,17.2,-0.4,30.21,North,-999,0.0,0.0,45,0.00,,,-99.99,FreeWX 2.04,2013-02-18 07:39:00,
2013-02-18 02:49:00,17.1,-0.6,30.21,North,-999,0.0,0.0,45,0.00,,,-99.99,FreeWX 2.04,2013-02-18 07:49:00,
2013-02-18 02:59:00,17.1,-0.6,30.21,North,-999,0.0,0.0,45,0.00,,,-99.99,FreeWX 2.04,2013-02-18 07:59:00,
2013-02-18 03:10:00,16.7,-0.9,30.21,North,-999,0.0,0.0,45,0.00,,,-99.99,FreeWX 2.04,2013-02-18 08:10:00,
2013-02-18 03:20:00,16.5,-1.1,30.21,North,-999,0.0,0.0,45,0.00,,,-99.99,FreeWX 2.04,2013-02-18 08:20:00,
2013-02-18 03:30:00,16.7,-0.4,30.21,North,-999,0.0,0.0,46,0.00,,,-99.99,FreeWX 2.04,2013-02-18 08:30:00,
2013-02-18 03:40:00,16.9,-0.2,30.21,North,-999,0.0,0.0,46,0.00,,,-99.99,FreeWX 2.04,2013-02-18 08:40:00,
2013-02-18 03:50:00,17.1,0.0,30.21,North,-999,0.0,0.0,46,0.00,,,-99.99,FreeWX 2.04,2013-02-18 08:50:00,
2013-02-18 04:00:00,17.2,0.1,30.21,North,-999,0.0,0.0,46,0.00,,,-99.99,FreeWX 2.04,2013-02-18 09:00:00,
2013-02-18 04:10:00,17.1,0.0,30.21,North,-999,0.0,0.0,46,0.00,,,-99.99,FreeWX 2.04,2013-02-18 09:10:00,
2013-02-18 04:20:00,16.7,-0.4,30.21,North,-999,0.0,0.0,46,0.00,,,-99.99,FreeWX 2.04,2013-02-18 09:20:00,
2013-02-18 04:30:00,16.9,-0.2,30.21,North,-999,0.0,0.0,46,0.00,,,-99.99,FreeWX 2.04,2013-02-18 09:30:00,
2013-02-18 04:40:00,16.9,-0.2,30.21,North,-999,0.0,0.0,46,0.00,,,-99.99,FreeWX 2.04,2013-02-18 09:40:00,
2013-02-18 04:50:00,17.1,0.0,30.21,North,-999,0.0,0.0,46,0.00,,,-99.99,FreeWX 2.04,2013-02-18 09:50:00,
2013-02-18 05:00:00,16.9,-0.2,30.21,North,-999,0.0,0.0,46,0.00,,,-99.99,FreeWX 2.04,2013-02-18 10:00:00,
2013-02-18 05:10:00,16.9,-0.8,30.21,North,-999,0.0,0.0,45,0.00,,,-99.99,FreeWX 2.04,2013-02-18 10:10:00,
2013-02-18 05:20:00,16.9,-0.2,30.21,North,-999,0.0,0.0,46,0.00,,,-99.99,FreeWX 2.04,2013-02-18 10:20:00,
2013-02-18 05:30:00,16.9,-0.8,30.21,North,-999,0.0,0.0,45,0.00,,,-99.99,FreeWX 2.04,2013-02-18 10:30:00,
2013-02-18 05:50:00,16.7,-0.4,30.21,North,-999,0.0,0.0,46,0.00,,,-99.99,FreeWX 2.04,2013-02-18 10:50:00,
2013-02-18 06:00:00,16.9,-0.2,30.21,North,-999,0.0,0.0,46,0.00,,,-99.99,FreeWX 2.04,2013-02-18 11:00:00,
2013-02-18 06:10:00,16.9,-0.2,30.21,North,-999,0.0,0.0,46,0.00,,,-99.99,FreeWX 2.04,2013-02-18 11:10:00,
2013-02-18 06:20:00,16.9,-0.2,30.21,North,-999,0.0,0.0,46,0.00,,,-99.99,FreeWX 2.04,2013-02-18 11:20:00,
2013-02-18 06:30:00,16.9,-0.2,30.21,North,-999,0.0,0.0,46,0.00,,,-99.99,FreeWX 2.04,2013-02-18 11:30:00,
2013-02-18 06:40:00,17.1,0.0,30.18,North,-999,0.0,0.0,46,0.00,,,-99.99,FreeWX 2.04,2013-02-18 11:40:00,
2013-02-18 06:50:00,16.9,-0.2,30.18,North,-999,0.0,0.0,46,0.00,,,-99.99,FreeWX 2.04,2013-02-18 11:50:00,
2013-02-18 07:00:00,17.2,0.5,30.18,North,-999,0.0,0.0,47,0.00,,,-99.99,FreeWX 2.04,2013-02-18 12:00:00,
2013-02-18 07:10:00,17.2,0.1,30.18,North,-999,0.0,0.0,46,0.00,,,-99.99,FreeWX 2.04,2013-02-18 12:10:00,
2013-02-18 07:20:00,17.1,0.0,30.18,North,-999,0.0,0.0,46,0.00,,,-99.99,FreeWX 2.04,2013-02-18 12:20:00,
2013-02-18 07:30:00,17.4,0.7,30.18,North,-999,0.0,0.0,47,0.00,,,-99.99,FreeWX 2.04,2013-02-18 12:30:00,
2013-02-18 07:40:00,18.0,1.2,30.18,North,-999,0.0,0.0,47,0.00,,,-99.99,FreeWX 2.04,2013-02-18 12:40:00,
2013-02-18 07:50:00,18.5,1.2,30.18,North,-999,0.0,0.0,46,0.00,,,-99.99,FreeWX 2.04,2013-02-18 12:50:00,
2013-02-18 08:00:00,19.2,1.9,30.18,North,-999,0.0,0.0,46,0.00,,,-99.99,FreeWX 2.04,2013-02-18 13:00:00,
2013-02-18 08:10:00,20.5,3.0,30.18,North,-999,0.0,0.0,46,0.00,,,-99.99,FreeWX 2.04,2013-02-18 13:10:00,
2013-02-18 08:20:00,21.4,3.9,30.18,North,-999,0.0,0.0,46,0.00,,,-99.99,FreeWX 2.04,2013-02-18 13:20:00,
2013-02-18 08:30:00,22.5,4.8,30.18,North,-999,0.0,0.0,46,0.00,,,-99.99,FreeWX 2.04,2013-02-18 13:30:00,
2013-02-18 08:40:00,23.9,6.6,30.18,North,-999,0.0,0.0,47,0.00,,,-99.99,FreeWX 2.04,2013-02-18 13:40:00,
2013-02-18 08:50:00,25.3,7.5,30.18,North,-999,0.0,3.6,46,0.00,,,-99.99,FreeWX 2.04,2013-02-18 13:50:00,
2013-02-18 09:00:00,27.1,8.6,30.18,North,350,1.0,5.4,45,0.00,,,-99.99,FreeWX 2.04,2013-02-18 14:00:00,
2013-02-18 09:10:00,28.6,9.0,30.18,North,351,2.0,5.4,43,0.00,,,-99.99,FreeWX 2.04,2013-02-18 14:10:00,
2013-02-18 09:20:00,29.8,6.8,30.18,North,356,3.0,6.3,37,0.00,,,-99.99,FreeWX 2.04,2013-02-18 14:20:00,
2013-02-18 09:30:00,32.0,4.8,30.18,North,0,3.0,4.9,31,0.00,,,-99.99,FreeWX 2.04,2013-02-18 14:30:00,
2013-02-18 09:42:00,33.4,1.4,30.18,NNW,346,6.0,10.5,25,0.00,,,-99.99,FreeWX 2.04,2013-02-18 14:42:00,
2013-02-18 09:52:00,34.3,3.9,30.15,NNW,348,5.0,7.8,27,0.00,,,-99.99,FreeWX 2.04,2013-02-18 14:52:00,
2013-02-18 10:02:00,36.0,2.7,30.15,North,351,4.0,7.8,24,0.00,,,-99.99,FreeWX 2.04,2013-02-18 15:02:00,
2013-02-18 10:12:00,37.6,4.1,30.15,North,351,5.0,9.6,24,0.00,,,-99.99,FreeWX 2.04,2013-02-18 15:12:00,
2013-02-18 10:22:00,38.7,4.1,30.15,NNW,345,6.0,9.2,23,0.00,,,-99.99,FreeWX 2.04,2013-02-18 15:22:00,
2013-02-18 10:32:00,40.3,5.5,30.15,North,354,4.0,7.8,23,0.00,,,-99.99,FreeWX 2.04,2013-02-18 15:32:00,
2013-02-18 10:42:00,42.1,7.0,30.15,North,351,4.0,6.7,23,0.00,,,-99.99,FreeWX 2.04,2013-02-18 15:42:00,
2013-02-18 10:52:00,43.9,7.5,30.15,North,350,4.0,8.3,22,0.00,,,-99.99,FreeWX 2.04,2013-02-18 15:52:00,
2013-02-18 11:02:00,45.3,8.8,30.12,North,350,5.0,9.6,22,0.00,,,-99.99,FreeWX 2.04,2013-02-18 16:02:00,
2013-02-18 11:12:00,46.8,10.0,30.12,North,5,4.0,7.8,22,0.00,,,-99.99,FreeWX 2.04,2013-02-18 16:12:00,
2013-02-18 11:22:00,48.2,10.0,30.12,North,2,5.0,12.1,21,0.00,,,-99.99,FreeWX 2.04,2013-02-18 16:22:00,
2013-02-18 11:32:00,49.8,11.5,30.12,North,358,4.0,13.0,21,0.00,,,-99.99,FreeWX 2.04,2013-02-18 16:32:00,
2013-02-18 11:56:00,52.3,13.6,30.12,NE,34,6.0,13.9,21,0.00,,,-99.99,FreeWX 2.04,2013-02-18 16:56:00,
2013-02-18 12:06:00,53.6,13.5,30.09,North,11,5.0,10.1,20,0.00,,,-99.99,FreeWX 2.04,2013-02-18 17:06:00,
2013-02-18 12:16:00,54.0,13.8,30.09,NE,46,6.0,13.9,20,0.00,,,-99.99,FreeWX 2.04,2013-02-18 17:16:00,
2013-02-18 12:26:00,54.5,14.2,30.09,NNE,17,5.0,11.0,20,0.00,,,-99.99,FreeWX 2.04,2013-02-18 17:26:00,
2013-02-18 12:36:00,55.2,14.9,30.09,NNE,19,5.0,12.1,20,0.00,,,-99.99,FreeWX 2.04,2013-02-18 17:36:00,
2013-02-18 12:57:00,56.1,15.6,30.09,NE,37,7.0,13.9,20,0.00,,,-99.99,FreeWX 2.04,2013-02-18 17:57:00,
2013-02-18 13:07:00,56.7,14.9,30.06,NNE,33,6.0,10.1,19,0.00,,,-99.99,FreeWX 2.04,2013-02-18 18:07:00,
2013-02-18 13:17:00,57.4,15.4,30.06,NNE,23,6.0,16.3,19,0.00,,,-99.99,FreeWX 2.04,2013-02-18 18:17:00,
2013-02-18 13:27:00,57.4,15.4,30.06,NNE,16,7.0,14.3,19,0.00,,,-99.99,FreeWX 2.04,2013-02-18 18:27:00,
2013-02-18 13:37:00,57.9,16.0,30.06,North,353,6.0,12.1,19,0.00,,,-99.99,FreeWX 2.04,2013-02-18 18:37:00,
2013-02-18 13:57:00,58.5,16.3,30.03,NNE,13,6.0,13.9,19,0.00,,,-99.99,FreeWX 2.04,2013-02-18 18:57:00,
2013-02-18 14:07:00,60.1,17.8,30.03,North,4,4.0,8.3,19,0.00,,,-99.99,FreeWX 2.04,2013-02-18 19:07:00,
2013-02-18 14:22:00,58.8,16.7,30.03,North,5,6.0,14.3,19,0.00,,,-99.99,FreeWX 2.04,2013-02-18 19:22:00,
2013-02-18 14:32:00,58.5,16.3,30.03,North,8,6.0,14.8,19,0.00,,,-99.99,FreeWX 2.04,2013-02-18 19:32:00,
2013-02-18 14:42:00,59.2,16.9,30.03,North,5,4.0,10.5,19,0.00,,,-99.99,FreeWX 2.04,2013-02-18 19:42:00,
2013-02-18 14:57:00,59.4,17.1,30.00,North,352,7.0,15.4,19,0.00,,,-99.99,FreeWX 2.04,2013-02-18 19:57:00,
2013-02-18 15:07:00,59.4,17.1,30.00,North,359,6.0,12.5,19,0.00,,,-99.99,FreeWX 2.04,2013-02-18 20:07:00,
2013-02-18 15:17:00,59.4,17.1,30.00,NNE,13,6.0,13.9,19,0.00,,,-99.99,FreeWX 2.04,2013-02-18 20:17:00,
2013-02-18 15:27:00,59.4,17.1,30.00,NNE,19,5.0,13.0,19,0.00,,,-99.99,FreeWX 2.04,2013-02-18 20:27:00,
2013-02-18 15:37:00,58.8,16.7,30.00,North,11,5.0,10.1,19,0.00,,,-99.99,FreeWX 2.04,2013-02-18 20:37:00,
2013-02-18 15:47:00,59.5,17.2,30.00,North,359,4.0,13.0,19,0.00,,,-99.99,FreeWX 2.04,2013-02-18 20:47:00,
2013-02-18 16:07:00,59.9,17.6,30.00,North,352,6.0,14.3,19,0.00,,,-99.99,FreeWX 2.04,2013-02-18 21:07:00,
2013-02-18 16:17:00,59.5,17.2,30.00,North,351,5.0,11.6,19,0.00,,,-99.99,FreeWX 2.04,2013-02-18 21:17:00,
2013-02-18 16:32:00,59.0,16.9,30.00,North,349,6.0,14.3,19,0.00,,,-99.99,FreeWX 2.04,2013-02-18 21:32:00,
2013-02-18 16:42:00,58.5,16.3,30.00,North,349,5.0,11.2,19,0.00,,,-99.99,FreeWX 2.04,2013-02-18 21:42:00,
2013-02-18 16:52:00,57.7,15.8,29.97,North,351,6.0,11.0,19,0.00,,,-99.99,FreeWX 2.04,2013-02-18 21:52:00,
2013-02-18 17:02:00,57.0,15.3,29.97,North,349,6.0,15.9,19,0.00,,,-99.99,FreeWX 2.04,2013-02-18 22:02:00,
2013-02-18 17:12:00,56.3,14.5,29.97,North,350,5.0,10.1,19,0.00,,,-99.99,FreeWX 2.04,2013-02-18 22:12:00,
2013-02-18 17:22:00,55.9,15.4,29.97,North,351,6.0,14.3,20,0.00,,,-99.99,FreeWX 2.04,2013-02-18 22:22:00,
2013-02-18 17:37:00,55.0,14.7,29.97,North,349,5.0,13.9,20,0.00,,,-99.99,FreeWX 2.04,2013-02-18 22:37:00,
2013-02-18 17:47:00,54.7,14.4,29.94,NNW,348,6.0,11.2,20,0.00,,,-99.99,FreeWX 2.04,2013-02-18 22:47:00,
2013-02-18 17:57:00,54.1,14.0,29.94,North,352,5.0,9.6,20,0.00,,,-99.99,FreeWX 2.04,2013-02-18 22:57:00,
2013-02-18 18:07:00,53.4,13.5,29.94,NNW,347,4.0,12.5,20,0.00,,,-99.99,FreeWX 2.04,2013-02-18 23:07:00,
2013-02-18 18:17:00,52.9,12.9,29.94,North,349,5.0,9.2,20,0.00,,,-99.99,FreeWX 2.04,2013-02-18 23:17:00,
2013-02-18 18:27:00,52.5,13.8,29.94,North,350,6.0,11.0,21,0.00,,,-99.99,FreeWX 2.04,2013-02-18 23:27:00,
2013-02-18 18:37:00,52.3,13.6,29.94,NNW,347,5.0,10.1,21,0.00,,,-99.99,FreeWX 2.04,2013-02-18 23:37:00,
2013-02-18 18:47:00,51.8,13.1,29.94,North,349,5.0,10.5,21,0.00,,,-99.99,FreeWX 2.04,2013-02-18 23:47:00,
2013-02-18 18:57:00,51.4,12.7,29.94,North,349,4.0,8.7,21,0.00,,,-99.99,FreeWX 2.04,2013-02-18 23:57:00,
2013-02-18 19:07:00,51.1,12.6,29.94,North,350,5.0,10.1,21,0.00,,,-99.99,FreeWX 2.04,2013-02-19 00:07:00,
2013-02-18 19:17:00,50.7,12.2,29.94,NNW,348,4.0,11.2,21,0.00,,,-99.99,FreeWX 2.04,2013-02-19 00:17:00,
2013-02-18 19:27:00,50.4,11.8,29.94,North,350,5.0,11.0,21,0.00,,,-99.99,FreeWX 2.04,2013-02-19 00:27:00,
2013-02-18 19:37:00,50.0,11.7,29.94,North,349,5.0,8.3,21,0.00,,,-99.99,FreeWX 2.04,2013-02-19 00:37:00,
2013-02-18 19:47:00,49.8,11.5,29.94,North,352,4.0,8.3,21,0.00,,,-99.99,FreeWX 2.04,2013-02-19 00:47:00,
2013-02-18 19:57:00,49.6,11.3,29.94,North,350,5.0,7.8,21,0.00,,,-99.99,FreeWX 2.04,2013-02-19 00:57:00,
2013-02-18 20:07:00,49.5,11.1,29.91,North,350,5.0,9.2,21,0.00,,,-99.99,FreeWX 2.04,2013-02-19 01:07:00,
2013-02-18 20:17:00,49.1,10.9,29.91,North,351,4.0,6.9,21,0.00,,,-99.99,FreeWX 2.04,2013-02-19 01:17:00,
2013-02-18 20:27:00,48.7,10.6,29.91,North,350,4.0,8.3,21,0.00,,,-99.99,FreeWX 2.04,2013-02-19 01:27:00,
2013-02-18 20:58:00,47.7,9.7,29.91,North,351,4.0,6.3,21,0.00,,,-99.99,FreeWX 2.04,2013-02-19 01:58:00,
2013-02-18 21:08:00,47.8,9.9,29.88,North,350,4.0,7.4,21,0.00,,,-99.99,FreeWX 2.04,2013-02-19 02:08:00,
2013-02-18 21:18:00,48.4,10.2,29.88,NNW,348,4.0,8.3,21,0.00,,,-99.99,FreeWX 2.04,2013-02-19 02:18:00,
2013-02-18 21:28:00,48.6,10.4,29.88,NNW,348,5.0,8.7,21,0.00,,,-99.99,FreeWX 2.04,2013-02-19 02:28:00,
2013-02-18 21:38:00,48.7,10.6,29.88,North,349,5.0,8.3,21,0.00,,,-99.99,FreeWX 2.04,2013-02-19 02:38:00,
2013-02-18 21:48:00,48.6,10.4,29.85,North,350,4.0,8.3,21,0.00,,,-99.99,FreeWX 2.04,2013-02-19 02:48:00,
2013-02-18 21:58:00,48.4,10.2,29.85,North,349,4.0,9.2,21,0.00,,,-99.99,FreeWX 2.04,2013-02-19 02:58:00,
2013-02-18 22:08:00,48.0,10.0,29.85,North,349,4.0,7.8,21,0.00,,,-99.99,FreeWX 2.04,2013-02-19 03:08:00,
2013-02-18 22:18:00,48.0,10.0,29.85,NNW,348,4.0,7.8,21,0.00,,,-99.99,FreeWX 2.04,2013-02-19 03:18:00,
2013-02-18 22:28:00,47.5,9.5,29.85,NNW,347,4.0,7.4,21,0.00,,,-99.99,FreeWX 2.04,2013-02-19 03:28:00,
2013-02-18 22:38:00,47.3,9.3,29.85,North,350,4.0,6.9,21,0.00,,,-99.99,FreeWX 2.04,2013-02-19 03:38:00,
2013-02-18 22:48:00,47.3,9.3,29.82,North,350,4.0,7.4,21,0.00,,,-99.99,FreeWX 2.04,2013-02-19 03:48:00,
2013-02-18 22:58:00,47.5,9.5,29.82,North,350,3.0,6.3,21,0.00,,,-99.99,FreeWX 2.04,2013-02-19 03:58:00,
2013-02-18 23:08:00,47.5,9.5,29.82,North,349,4.0,8.7,21,0.00,,,-99.99,FreeWX 2.04,2013-02-19 04:08:00,
2013-02-18 23:21:00,47.7,9.7,29.82,North,350,4.0,10.5,21,0.00,,,-99.99,FreeWX 2.04,2013-02-19 04:21:00,
2013-02-18 23:31:00,47.7,9.7,29.79,North,350,4.0,8.3,21,0.00,,,-99.99,FreeWX 2.04,2013-02-19 04:31:00,
2013-02-18 23:41:00,47.8,9.9,29.79,NNW,347,5.0,9.2,21,0.00,,,-99.99,FreeWX 2.04,2013-02-19 04:41:00,
2013-02-18 23:51:00,47.8,9.9,29.79,NNW,348,4.0,7.4,21,0.00,,,-99.99,FreeWX 2.04,2013-02-19 04:51:00,